SCEL 170600Z 17004KT CAVOK 15/10 Q1017 NOSIG